createdAt,value
2019-03-30T00:00:46.575Z,4.40
2019-03-30T00:03:14.943Z,4.30
2019-03-30T00:05:43.312Z,4.30
2019-03-30T00:08:11.684Z,4.30
2019-03-30T00:10:40.038Z,4.20
2019-03-30T00:13:08.406Z,4.20
2019-03-30T00:15:36.772Z,4.20
2019-03-30T00:18:05.133Z,4.20
2019-03-30T00:20:33.516Z,4.20
2019-03-30T00:23:01.868Z,4.20
2019-03-30T00:25:30.244Z,4.10
2019-03-30T00:27:58.600Z,4.10
2019-03-30T00:30:26.956Z,4.00
2019-03-30T00:32:55.328Z,4.00
2019-03-30T00:35:23.688Z,4.00
2019-03-30T00:37:52.060Z,4.00
2019-03-30T00:40:20.412Z,4.00
2019-03-30T00:42:49.129Z,4.00
2019-03-30T00:45:17.484Z,4.00
2019-03-30T00:47:45.852Z,4.00
2019-03-30T00:50:14.215Z,3.90
2019-03-30T00:52:42.592Z,3.90
2019-03-30T00:55:10.943Z,3.90
2019-03-30T00:57:39.316Z,3.90
2019-03-30T01:00:07.760Z,3.90
2019-03-30T01:02:36.132Z,3.90
2019-03-30T01:05:06.056Z,3.90
2019-03-30T01:07:34.420Z,3.90
2019-03-30T01:10:03.215Z,3.90
2019-03-30T01:12:31.660Z,3.90
2019-03-30T01:15:00.041Z,3.90
2019-03-30T01:17:28.400Z,3.90
2019-03-30T01:20:02.926Z,3.90
2019-03-30T01:22:26.780Z,3.80
2019-03-30T01:24:55.139Z,3.80
2019-03-30T01:27:23.505Z,3.80
2019-03-30T01:29:51.879Z,3.80
2019-03-30T01:32:20.611Z,3.80
2019-03-30T01:34:48.976Z,3.80
2019-03-30T01:37:17.364Z,3.80
2019-03-30T01:39:45.720Z,3.80
2019-03-30T01:42:14.160Z,3.70
2019-03-30T01:44:42.511Z,3.70
2019-03-30T01:47:10.872Z,3.70
2019-03-30T01:49:39.239Z,3.70
2019-03-30T01:52:07.604Z,3.70
2019-03-30T01:54:35.978Z,3.70
2019-03-30T01:57:04.339Z,3.60
2019-03-30T01:59:32.692Z,3.60
2019-03-30T02:02:01.073Z,3.60
2019-03-30T02:04:29.432Z,3.50
2019-03-30T02:06:57.797Z,3.50
2019-03-30T02:09:26.155Z,3.40
2019-03-30T02:11:54.508Z,3.40
2019-03-30T02:14:22.888Z,3.40
2019-03-30T02:16:51.264Z,3.40
2019-03-30T02:19:19.637Z,3.40
2019-03-30T02:21:48.002Z,3.40
2019-03-30T02:24:16.379Z,3.40
2019-03-30T02:26:44.732Z,3.40
2019-03-30T02:29:13.114Z,3.40
2019-03-30T02:31:41.479Z,3.40
2019-03-30T02:34:09.832Z,3.40
2019-03-30T02:36:38.210Z,3.50
2019-03-30T02:39:06.556Z,3.50
2019-03-30T02:41:34.938Z,3.50
2019-03-30T02:44:03.292Z,3.50
2019-03-30T02:46:31.678Z,3.50
2019-03-30T02:49:00.025Z,3.50
2019-03-30T02:51:28.399Z,3.50
2019-03-30T02:53:56.777Z,3.50
2019-03-30T02:56:25.131Z,3.50
2019-03-30T02:58:53.508Z,3.50
2019-03-30T03:01:21.867Z,3.40
2019-03-30T03:03:50.221Z,3.40
2019-03-30T03:06:18.605Z,3.40
2019-03-30T03:08:46.955Z,3.40
2019-03-30T03:11:15.312Z,3.40
2019-03-30T03:13:43.692Z,3.40
2019-03-30T03:16:12.044Z,3.40
2019-03-30T03:18:40.470Z,3.40
2019-03-30T03:21:09.089Z,3.40
2019-03-30T03:23:37.674Z,3.40
2019-03-30T03:26:06.035Z,3.40
2019-03-30T03:28:34.408Z,3.40
2019-03-30T03:31:02.792Z,3.50
2019-03-30T03:33:31.169Z,3.50
2019-03-30T03:35:59.527Z,3.50
2019-03-30T03:38:27.889Z,3.50
2019-03-30T03:40:56.259Z,3.60
2019-03-30T03:43:24.612Z,3.60
2019-03-30T03:45:52.988Z,3.60
2019-03-30T03:48:21.373Z,3.60
2019-03-30T03:50:52.758Z,3.60
2019-03-30T03:53:21.116Z,3.60
2019-03-30T03:55:49.492Z,3.70
2019-03-30T03:58:18.027Z,3.60
2019-03-30T04:00:46.396Z,3.70
2019-03-30T04:03:16.767Z,3.70
2019-03-30T04:05:45.676Z,3.60
2019-03-30T04:08:14.025Z,3.60
2019-03-30T04:10:43.063Z,3.60
2019-03-30T04:13:13.719Z,3.60
2019-03-30T04:15:42.159Z,3.60
2019-03-30T04:18:10.520Z,3.50
2019-03-30T04:20:38.894Z,3.50
2019-03-30T04:23:07.253Z,3.50
2019-03-30T04:25:35.709Z,3.50
2019-03-30T04:28:04.064Z,3.50
2019-03-30T04:30:34.040Z,3.50
2019-03-30T04:33:02.414Z,3.40
2019-03-30T04:35:30.772Z,3.40
2019-03-30T04:37:59.157Z,3.40
2019-03-30T04:40:27.517Z,3.40
2019-03-30T04:42:56.445Z,3.40
2019-03-30T04:45:24.811Z,3.40
2019-03-30T04:47:53.166Z,3.40
2019-03-30T04:50:21.537Z,3.50
2019-03-30T04:52:49.891Z,3.50
2019-03-30T04:55:18.267Z,3.50
2019-03-30T04:57:49.796Z,3.50
2019-03-30T05:00:16.658Z,3.60
2019-03-30T05:02:45.014Z,3.60
2019-03-30T05:05:13.384Z,3.60
2019-03-30T05:07:41.757Z,3.70
2019-03-30T05:10:10.107Z,3.70
2019-03-30T05:12:38.452Z,3.80
2019-03-30T05:15:06.967Z,3.90
2019-03-30T05:17:46.805Z,4.00
2019-03-30T05:20:07.021Z,4.00
2019-03-30T05:22:35.761Z,4.10
2019-03-30T05:25:04.787Z,4.20
2019-03-30T05:27:33.156Z,4.20
2019-03-30T05:30:01.513Z,4.30
2019-03-30T05:32:29.889Z,4.40
2019-03-30T05:34:58.237Z,4.50
2019-03-30T05:37:26.595Z,4.60
2019-03-30T05:39:54.970Z,4.70
2019-03-30T05:42:23.356Z,4.80
2019-03-30T05:44:51.704Z,4.90
2019-03-30T05:47:20.075Z,5.00
2019-03-30T05:49:48.460Z,5.10
2019-03-30T05:52:26.449Z,5.20
2019-03-30T05:54:46.823Z,5.30
2019-03-30T05:57:15.196Z,5.40
2019-03-30T05:59:43.577Z,5.50
2019-03-30T06:02:11.961Z,5.60
2019-03-30T06:04:40.311Z,5.80
2019-03-30T06:07:08.677Z,5.90
2019-03-30T06:09:37.059Z,6.00
2019-03-30T06:12:05.403Z,6.10
2019-03-30T06:14:33.916Z,6.20
2019-03-30T06:17:02.272Z,6.20
2019-03-30T06:19:30.628Z,6.30
2019-03-30T06:21:59.005Z,6.40
2019-03-30T06:24:27.364Z,6.50
2019-03-30T06:26:55.738Z,6.50
2019-03-30T06:29:24.091Z,6.60
2019-03-30T06:31:52.847Z,6.70
2019-03-30T06:34:21.203Z,6.80
2019-03-30T06:36:49.556Z,6.80
2019-03-30T06:39:17.947Z,6.90
2019-03-30T06:41:46.303Z,7.00
2019-03-30T06:44:14.664Z,7.00
2019-03-30T06:46:43.039Z,7.10
2019-03-30T06:49:11.394Z,7.10
2019-03-30T06:51:39.767Z,7.20
2019-03-30T06:54:08.132Z,7.30
2019-03-30T06:56:36.498Z,7.40
2019-03-30T06:59:04.852Z,7.40
2019-03-30T07:01:33.227Z,7.50
2019-03-30T07:04:01.587Z,7.60
2019-03-30T07:06:29.964Z,7.70
2019-03-30T07:08:58.825Z,7.70
2019-03-30T07:11:28.855Z,7.80
2019-03-30T07:13:58.081Z,7.80
2019-03-30T07:16:27.492Z,7.90
2019-03-30T07:18:55.848Z,8.00
2019-03-30T07:21:24.216Z,8.00
2019-03-30T07:23:52.577Z,8.10
2019-03-30T07:26:20.946Z,8.20
2019-03-30T07:28:49.321Z,8.20
2019-03-30T07:31:17.697Z,8.30
2019-03-30T07:33:46.052Z,8.40
2019-03-30T07:36:14.427Z,8.50
2019-03-30T07:38:42.779Z,8.50
2019-03-30T07:41:11.135Z,8.60
2019-03-30T07:43:39.505Z,8.70
2019-03-30T07:46:07.873Z,8.80
2019-03-30T07:48:36.245Z,8.90
2019-03-30T07:51:04.599Z,9.00
2019-03-30T07:53:43.762Z,9.10
2019-03-30T07:56:08.522Z,9.10
2019-03-30T07:58:33.250Z,9.20
2019-03-30T08:01:01.615Z,9.30
2019-03-30T08:03:29.968Z,9.40
2019-03-30T08:05:58.341Z,9.50
2019-03-30T08:08:26.712Z,9.60
2019-03-30T08:10:55.083Z,9.80
2019-03-30T08:13:23.468Z,10.00
2019-03-30T08:15:51.851Z,10.10
2019-03-30T08:18:20.224Z,10.20
2019-03-30T08:20:48.587Z,10.30
2019-03-30T08:23:16.956Z,10.40
2019-03-30T08:25:45.572Z,10.50
2019-03-30T08:28:13.925Z,10.60
2019-03-30T08:30:42.288Z,10.70
2019-03-30T08:33:10.679Z,10.70
2019-03-30T08:35:39.044Z,10.80
2019-03-30T08:38:07.399Z,10.90
2019-03-30T08:40:35.779Z,10.90
2019-03-30T08:43:04.152Z,11.00
2019-03-30T08:45:32.527Z,11.00
2019-03-30T08:48:00.903Z,11.00
2019-03-30T08:50:29.257Z,11.00
2019-03-30T08:52:57.699Z,11.00
2019-03-30T08:55:26.049Z,11.10
2019-03-30T08:57:54.400Z,11.20
2019-03-30T09:00:37.363Z,11.20
2019-03-30T09:03:05.855Z,11.30
2019-03-30T09:05:34.221Z,11.40
2019-03-30T09:08:02.598Z,11.40
2019-03-30T09:10:31.024Z,11.40
2019-03-30T09:12:59.388Z,11.40
2019-03-30T09:15:27.751Z,11.40
2019-03-30T09:17:56.119Z,11.50
2019-03-30T09:20:24.492Z,11.60
2019-03-30T09:22:52.878Z,11.70
2019-03-30T09:25:21.245Z,11.80
2019-03-30T09:27:49.603Z,12.00
2019-03-30T09:30:17.983Z,12.10
2019-03-30T09:32:46.354Z,12.20
2019-03-30T09:35:14.730Z,12.30
2019-03-30T09:37:43.111Z,12.40
2019-03-30T09:40:11.500Z,12.60
2019-03-30T09:42:39.855Z,12.70
2019-03-30T09:45:08.220Z,12.70
2019-03-30T09:47:36.594Z,12.80
2019-03-30T09:50:07.777Z,12.90
2019-03-30T09:52:36.145Z,13.10
2019-03-30T09:55:07.043Z,13.30
2019-03-30T09:57:35.395Z,13.30
2019-03-30T10:00:04.128Z,13.40
2019-03-30T10:02:32.504Z,13.40
2019-03-30T10:05:00.868Z,13.40
2019-03-30T10:07:29.220Z,13.50
2019-03-30T10:09:57.600Z,13.50
2019-03-30T10:12:25.956Z,13.50
2019-03-30T10:14:54.809Z,13.60
2019-03-30T10:17:23.167Z,13.60
2019-03-30T10:20:03.550Z,13.50
2019-03-30T10:22:21.583Z,13.50
2019-03-30T10:24:49.953Z,13.50
2019-03-30T10:27:18.313Z,13.40
2019-03-30T10:29:46.683Z,13.40
2019-03-30T10:32:15.049Z,13.40
2019-03-30T10:34:43.415Z,13.30
2019-03-30T10:37:11.791Z,13.30
2019-03-30T10:39:40.166Z,13.40
2019-03-30T10:42:08.547Z,13.40
2019-03-30T10:44:36.840Z,13.50
2019-03-30T10:47:05.213Z,13.50
2019-03-30T10:49:33.592Z,13.60
2019-03-30T10:52:01.957Z,13.70
2019-03-30T10:54:30.379Z,13.70
2019-03-30T10:56:58.711Z,13.70
2019-03-30T10:59:27.088Z,13.70
2019-03-30T11:01:55.454Z,13.70
2019-03-30T11:04:23.813Z,13.70
2019-03-30T11:06:52.192Z,13.80
2019-03-30T11:09:20.564Z,13.90
2019-03-30T11:11:48.939Z,13.90
2019-03-30T11:14:17.300Z,14.00
2019-03-30T11:16:45.660Z,14.00
2019-03-30T11:19:14.042Z,14.00
2019-03-30T11:21:42.404Z,14.00
2019-03-30T11:24:10.846Z,14.10
2019-03-30T11:26:39.304Z,14.10
2019-03-30T11:29:07.668Z,14.00
2019-03-30T11:31:36.049Z,14.00
2019-03-30T11:34:05.468Z,14.00
2019-03-30T11:36:34.002Z,14.00
2019-03-30T11:39:02.431Z,13.90
2019-03-30T11:41:30.804Z,14.00
2019-03-30T11:43:59.176Z,14.00
2019-03-30T11:46:27.551Z,14.00
2019-03-30T11:48:55.913Z,14.10
2019-03-30T11:51:24.295Z,14.20
2019-03-30T11:53:52.650Z,14.20
2019-03-30T11:56:21.030Z,14.20
2019-03-30T11:58:49.410Z,14.20
2019-03-30T12:01:17.763Z,14.20
2019-03-30T12:03:46.155Z,14.20
2019-03-30T12:06:14.504Z,14.20
2019-03-30T12:08:42.870Z,14.30
2019-03-30T12:11:11.253Z,14.30
2019-03-30T12:13:39.611Z,14.30
2019-03-30T12:16:07.999Z,14.40
2019-03-30T12:18:36.363Z,14.30
2019-03-30T12:21:05.135Z,14.40
2019-03-30T12:23:33.485Z,14.30
2019-03-30T12:26:01.845Z,14.30
2019-03-30T12:28:30.227Z,14.30
2019-03-30T12:30:58.587Z,14.30
2019-03-30T12:33:27.016Z,14.30
2019-03-30T12:35:55.376Z,14.30
2019-03-30T12:38:23.737Z,14.30
2019-03-30T12:40:52.488Z,14.40
2019-03-30T12:43:20.848Z,14.40
2019-03-30T12:45:49.229Z,14.40
2019-03-30T12:48:17.587Z,14.40
2019-03-30T12:50:46.271Z,14.40
2019-03-30T12:53:14.636Z,14.40
2019-03-30T12:55:49.238Z,14.50
2019-03-30T12:58:13.034Z,14.50
2019-03-30T13:00:41.388Z,14.60
2019-03-30T13:03:09.771Z,14.50
2019-03-30T13:05:38.136Z,14.60
2019-03-30T13:08:06.507Z,14.60
2019-03-30T13:10:34.872Z,14.60
2019-03-30T13:13:03.258Z,14.70
2019-03-30T13:15:31.617Z,14.70
2019-03-30T13:17:59.988Z,14.70
2019-03-30T13:20:28.355Z,14.70
2019-03-30T13:22:56.729Z,14.70
2019-03-30T13:25:25.105Z,14.70
2019-03-30T13:27:53.572Z,14.70
2019-03-30T13:30:21.971Z,14.80
2019-03-30T13:32:53.215Z,14.80
2019-03-30T13:35:20.350Z,14.70
2019-03-30T13:37:48.733Z,14.70
2019-03-30T13:40:17.084Z,14.70
2019-03-30T13:42:45.783Z,14.70
2019-03-30T13:45:14.145Z,14.60
2019-03-30T13:47:42.509Z,14.60
2019-03-30T13:50:10.883Z,14.60
2019-03-30T13:52:39.251Z,14.60
2019-03-30T13:55:07.633Z,14.70
2019-03-30T13:57:35.992Z,14.70
2019-03-30T14:00:06.904Z,14.70
2019-03-30T14:02:35.263Z,14.70
2019-03-30T14:05:04.288Z,14.80
2019-03-30T14:07:32.665Z,14.70
2019-03-30T14:10:01.033Z,14.80
2019-03-30T14:12:29.406Z,14.70
2019-03-30T14:14:57.770Z,14.70
2019-03-30T14:17:26.146Z,14.70
2019-03-30T14:19:54.499Z,14.70
2019-03-30T14:22:22.879Z,14.70
2019-03-30T14:24:51.240Z,14.70
2019-03-30T14:27:19.592Z,14.60
2019-03-30T14:29:47.964Z,14.60
2019-03-30T14:32:16.321Z,14.60
2019-03-30T14:34:44.700Z,14.60
2019-03-30T14:37:13.067Z,14.60
2019-03-30T14:39:41.452Z,14.60
2019-03-30T14:42:09.816Z,14.60
2019-03-30T14:44:38.194Z,14.50
2019-03-30T14:47:06.572Z,14.50
2019-03-30T14:49:34.929Z,14.50
2019-03-30T14:52:03.328Z,14.50
2019-03-30T14:54:31.749Z,14.50
2019-03-30T14:57:00.112Z,14.50
2019-03-30T14:59:28.489Z,14.50
2019-03-30T15:01:56.867Z,14.40
2019-03-30T15:04:25.242Z,14.40
2019-03-30T15:06:53.591Z,14.40
2019-03-30T15:09:21.968Z,14.40
2019-03-30T15:11:50.344Z,14.40
2019-03-30T15:14:18.720Z,14.40
2019-03-30T15:16:47.084Z,14.30
2019-03-30T15:19:15.439Z,14.30
2019-03-30T15:21:43.813Z,14.20
2019-03-30T15:24:12.184Z,14.20
2019-03-30T15:26:40.560Z,14.20
2019-03-30T15:29:08.920Z,14.20
2019-03-30T15:31:37.314Z,14.20
2019-03-30T15:34:05.668Z,14.10
2019-03-30T15:36:34.074Z,14.20
2019-03-30T15:39:02.778Z,14.10
2019-03-30T15:41:31.157Z,14.10
2019-03-30T15:43:59.529Z,14.00
2019-03-30T15:46:27.891Z,14.00
2019-03-30T15:48:56.264Z,14.00
2019-03-30T15:51:24.623Z,14.00
2019-03-30T15:53:52.927Z,14.00
2019-03-30T15:56:21.305Z,13.90
2019-03-30T15:58:49.677Z,13.90
2019-03-30T16:01:18.029Z,13.80
2019-03-30T16:03:46.414Z,13.80
2019-03-30T16:06:14.783Z,13.80
2019-03-30T16:08:43.141Z,13.70
2019-03-30T16:11:11.510Z,13.70
2019-03-30T16:13:39.871Z,13.70
2019-03-30T16:16:08.251Z,13.60
2019-03-30T16:18:36.608Z,13.60
2019-03-30T16:21:04.970Z,13.60
2019-03-30T16:23:33.344Z,13.50
2019-03-30T16:26:01.710Z,13.40
2019-03-30T16:28:30.079Z,13.30
2019-03-30T16:30:58.435Z,13.30
2019-03-30T16:33:26.812Z,13.20
2019-03-30T16:35:55.166Z,13.10
2019-03-30T16:38:23.519Z,13.10
2019-03-30T16:40:52.184Z,13.00
2019-03-30T16:43:20.544Z,12.90
2019-03-30T16:45:48.913Z,12.90
2019-03-30T16:48:17.292Z,12.80
2019-03-30T16:50:45.668Z,12.70
2019-03-30T16:53:14.021Z,12.60
2019-03-30T16:55:42.395Z,12.50
2019-03-30T16:58:10.769Z,12.40
2019-03-30T17:00:39.163Z,12.30
2019-03-30T17:03:07.512Z,12.20
2019-03-30T17:05:35.894Z,12.00
2019-03-30T17:08:04.250Z,11.90
2019-03-30T17:10:32.619Z,11.70
2019-03-30T17:13:00.980Z,11.60
2019-03-30T17:15:29.741Z,11.40
2019-03-30T17:17:58.092Z,11.30
2019-03-30T17:20:26.452Z,11.20
2019-03-30T17:22:54.836Z,11.00
2019-03-30T17:25:23.203Z,10.80
2019-03-30T17:27:58.005Z,10.70
2019-03-30T17:30:21.580Z,10.60
2019-03-30T17:32:49.957Z,10.60
2019-03-30T17:35:18.320Z,10.40
2019-03-30T17:37:47.107Z,10.30
2019-03-30T17:40:15.462Z,10.20
2019-03-30T17:42:43.822Z,10.10
2019-03-30T17:45:12.196Z,9.90
2019-03-30T17:47:40.575Z,9.90
2019-03-30T17:50:08.934Z,9.70
2019-03-30T17:52:37.337Z,9.70
2019-03-30T17:55:05.819Z,9.60
2019-03-30T17:57:34.176Z,9.50
2019-03-30T18:00:02.604Z,9.50
2019-03-30T18:02:31.275Z,9.40
2019-03-30T18:04:59.636Z,9.30
2019-03-30T18:07:27.986Z,9.30
2019-03-30T18:09:56.352Z,9.20
2019-03-30T18:12:24.744Z,9.10
2019-03-30T18:14:53.108Z,9.00
2019-03-30T18:17:21.455Z,9.00
2019-03-30T18:19:49.830Z,8.90
2019-03-30T18:22:18.181Z,8.90
2019-03-30T18:24:46.557Z,8.90
2019-03-30T18:27:14.916Z,8.80
2019-03-30T18:29:43.271Z,8.80
2019-03-30T18:32:11.657Z,8.70
2019-03-30T18:34:40.778Z,8.70
2019-03-30T18:37:09.125Z,8.60
2019-03-30T18:39:37.500Z,8.60
2019-03-30T18:42:05.872Z,8.50
2019-03-30T18:44:34.247Z,8.50
2019-03-30T18:47:02.603Z,8.40
2019-03-30T18:49:30.976Z,8.40
2019-03-30T18:51:59.336Z,8.40
2019-03-30T18:54:27.712Z,8.30
2019-03-30T18:56:56.090Z,8.30
2019-03-30T18:59:24.451Z,8.30
2019-03-30T19:01:52.823Z,8.20
2019-03-30T19:04:21.200Z,8.20
2019-03-30T19:06:49.573Z,8.20
2019-03-30T19:09:17.953Z,8.10
2019-03-30T19:11:46.303Z,8.10
2019-03-30T19:14:14.676Z,8.10
2019-03-30T19:16:43.031Z,8.10
2019-03-30T19:19:11.390Z,8.00
2019-03-30T19:21:39.759Z,8.00
2019-03-30T19:24:08.112Z,8.00
2019-03-30T19:26:36.487Z,8.10
2019-03-30T19:29:04.848Z,8.10
2019-03-30T19:31:33.214Z,8.10
2019-03-30T19:34:01.567Z,8.10
2019-03-30T19:36:29.933Z,8.10
2019-03-30T19:38:58.291Z,8.00
2019-03-30T19:41:26.661Z,8.00
2019-03-30T19:43:55.035Z,7.90
2019-03-30T19:46:26.538Z,7.90
2019-03-30T19:48:53.406Z,7.90
2019-03-30T19:51:21.755Z,7.90
2019-03-30T19:53:50.125Z,7.80
2019-03-30T19:56:18.509Z,7.80
2019-03-30T19:58:46.855Z,7.80
2019-03-30T20:01:15.155Z,7.70
2019-03-30T20:03:43.538Z,7.70
2019-03-30T20:06:12.407Z,7.60
2019-03-30T20:08:40.759Z,7.60
2019-03-30T20:11:09.117Z,7.60
2019-03-30T20:13:37.481Z,7.60
2019-03-30T20:16:05.840Z,7.50
2019-03-30T20:18:34.225Z,7.50
2019-03-30T20:21:02.567Z,7.50
2019-03-30T20:23:30.955Z,7.50
2019-03-30T20:25:59.303Z,7.50
2019-03-30T20:28:27.655Z,7.50
2019-03-30T20:30:56.091Z,7.50
2019-03-30T20:33:24.384Z,7.50
2019-03-30T20:35:53.637Z,7.50
2019-03-30T20:38:21.998Z,7.50
2019-03-30T20:40:50.372Z,7.50
2019-03-30T20:43:18.710Z,7.40
2019-03-30T20:45:47.012Z,7.40
2019-03-30T20:48:15.360Z,7.30
2019-03-30T20:50:43.735Z,7.30
2019-03-30T20:53:12.110Z,7.30
2019-03-30T20:55:40.468Z,7.30
2019-03-30T20:58:08.841Z,7.30
2019-03-30T21:00:37.203Z,7.30
2019-03-30T21:03:05.563Z,7.30
2019-03-30T21:05:33.939Z,7.30
2019-03-30T21:08:02.312Z,7.30
2019-03-30T21:10:30.687Z,7.30
2019-03-30T21:12:59.048Z,7.30
2019-03-30T21:15:27.424Z,7.30
2019-03-30T21:17:55.781Z,7.40
2019-03-30T21:20:24.161Z,7.40
2019-03-30T21:22:52.516Z,7.40
2019-03-30T21:25:21.309Z,7.30
2019-03-30T21:27:49.659Z,7.30
2019-03-30T21:30:18.015Z,7.30
2019-03-30T21:32:46.410Z,7.20
2019-03-30T21:35:14.768Z,7.20
2019-03-30T21:37:43.118Z,7.20
2019-03-30T21:40:11.506Z,7.20
2019-03-30T21:42:39.855Z,7.20
2019-03-30T21:45:08.581Z,7.20
2019-03-30T21:47:37.023Z,7.20
2019-03-30T21:50:07.076Z,7.20
2019-03-30T21:52:35.456Z,7.20
2019-03-30T21:55:04.657Z,7.20
2019-03-30T21:57:33.033Z,7.20
2019-03-30T22:00:09.951Z,7.20
2019-03-30T22:02:31.432Z,7.20
2019-03-30T22:04:59.792Z,7.20
2019-03-30T22:07:28.150Z,7.20
2019-03-30T22:09:56.519Z,7.10
2019-03-30T22:12:24.876Z,7.10
2019-03-30T22:14:53.252Z,7.10
2019-03-30T22:17:21.609Z,7.10
2019-03-30T22:19:49.963Z,7.10
2019-03-30T22:22:18.349Z,7.10
2019-03-30T22:24:46.708Z,7.10
2019-03-30T22:27:15.084Z,7.10
2019-03-30T22:29:43.440Z,7.00
2019-03-30T22:32:11.819Z,7.00
2019-03-30T22:34:40.181Z,7.00
2019-03-30T22:37:08.551Z,7.00
2019-03-30T22:39:36.929Z,6.90
2019-03-30T22:42:05.292Z,6.90
2019-03-30T22:44:33.639Z,6.90
2019-03-30T22:47:02.012Z,7.00
2019-03-30T22:49:30.371Z,7.00
2019-03-30T22:51:58.746Z,7.00
2019-03-30T22:54:27.102Z,7.00
2019-03-30T22:56:55.493Z,7.00
2019-03-30T22:59:23.843Z,6.90
2019-03-30T23:01:52.204Z,6.90
2019-03-30T23:04:20.576Z,6.80
2019-03-30T23:06:48.957Z,6.70
2019-03-30T23:09:17.333Z,6.70
2019-03-30T23:11:45.712Z,6.70
2019-03-30T23:14:14.088Z,6.70
2019-03-30T23:16:42.462Z,6.70
2019-03-30T23:19:10.845Z,6.60
2019-03-30T23:21:39.201Z,6.60
2019-03-30T23:24:07.560Z,6.60
2019-03-30T23:26:35.935Z,6.60
2019-03-30T23:29:04.293Z,6.60
2019-03-30T23:31:32.666Z,6.60
2019-03-30T23:34:01.019Z,6.50
2019-03-30T23:36:29.396Z,6.50
2019-03-30T23:38:57.759Z,6.50
2019-03-30T23:41:26.132Z,6.50
2019-03-30T23:43:54.486Z,6.50
2019-03-30T23:46:22.854Z,6.60
2019-03-30T23:48:51.227Z,6.60
2019-03-30T23:51:19.590Z,6.60
2019-03-30T23:53:47.963Z,6.60
2019-03-30T23:56:23.973Z,6.60
2019-03-30T23:58:52.719Z,6.60
